Search for airport 
image banner adimage banner adimage banner ad
image banner ad

58CN - Jackson Lake

Located in Jackson Lake, United States

ICAO - 58CN, IATA -

Data provided by Airmate  

General information

Coordinates: N39°27'44" W120°33'58"
Elevation is 6650 feet MSL.
Magnetic variation is 16° East
View others Airports in California

Operational data

Special qualification required
Current time UTC:
Current local time:
Weather at : KBLU - Blue Canyon - Nyack ( 24 km )
METAR: KBLU 221352Z AUTO 13003KT 10SM CLR 19/03 A3010 RMK AO2 SLP093 T01890033 $
View NOTAMs / SUP AIP / TFR affecting this airport [VIEW]
Communications frequencies: [VIEW]

Runways:

Airport contact information

Address: Jackson Lake United States

Satellite view of 58CN